Richland, Oregon
Current Conditions -  °F | °C
As of 8:00 PM on Friday 19 Dec 2014 (Local Time) from KBKE Reporting Station
Broken Clouds Broken Clouds  
Wind Chill: 29°   Ceiling: 1000
Heat Index: 29°   Visibility: 8mi
Dew Point: 28°   Wind: 0mph
Humidity: 96%   Direction: NA
Pressure: 30.06"   Gusts: NA
Location:  44.77°N, 117.17°W
Report Text: KBKE 200400Z AUTO 00000KT 8SM BKN010 M02/M02 A3006 RMK AO2 T10171022
Loading
Personal Weather Stations






























Interactive Weather Map New forecast layout! Learn more

10-Day Weather Forecast

Advertisements
Track Severe Weather on mobile